sensor_id;sensor_type;location;lat;lon;timestamp;pressure;altitude;pressure_sealevel;temperature;humidity
49461;BME280;35355;49.198;-0.368;2023-02-14T00:00:16;102697.31;;;4.37;82.50
49461;BME280;35355;49.198;-0.368;2023-02-14T00:02:42;102698.16;;;4.38;82.97
49461;BME280;35355;49.198;-0.368;2023-02-14T00:05:07;102692.94;;;4.36;82.41
49461;BME280;35355;49.198;-0.368;2023-02-14T00:07:33;102688.69;;;4.34;82.42
49461;BME280;35355;49.198;-0.368;2023-02-14T00:09:58;102691.22;;;4.35;82.36
49461;BME280;35355;49.198;-0.368;2023-02-14T00:12:24;102693.94;;;4.35;82.54
49461;BME280;35355;49.198;-0.368;2023-02-14T00:14:49;102694.97;;;4.34;82.55
49461;BME280;35355;49.198;-0.368;2023-02-14T00:17:33;102699.69;;;4.32;82.54
49461;BME280;35355;49.198;-0.368;2023-02-14T00:19:58;102695.66;;;4.28;82.18
49461;BME280;35355;49.198;-0.368;2023-02-14T00:22:23;102702.06;;;4.27;82.27
49461;BME280;35355;49.198;-0.368;2023-02-14T00:24:49;102699.72;;;4.24;82.64
49461;BME280;35355;49.198;-0.368;2023-02-14T00:27:14;102701.72;;;4.22;82.38
49461;BME280;35355;49.198;-0.368;2023-02-14T00:29:40;102699.19;;;4.20;82.23
49461;BME280;35355;49.198;-0.368;2023-02-14T00:32:05;102704.13;;;4.17;82.13
49461;BME280;35355;49.198;-0.368;2023-02-14T00:34:30;102700.88;;;4.13;82.27
49461;BME280;35355;49.198;-0.368;2023-02-14T00:36:57;102694.50;;;4.06;82.04
49461;BME280;35355;49.198;-0.368;2023-02-14T00:39:23;102691.97;;;4.04;82.05
49461;BME280;35355;49.198;-0.368;2023-02-14T00:41:48;102697.03;;;3.99;82.52
49461;BME280;35355;49.198;-0.368;2023-02-14T00:44:13;102691.97;;;3.96;82.97
49461;BME280;35355;49.198;-0.368;2023-02-14T00:46:39;102677.78;;;3.94;83.15
49461;BME280;35355;49.198;-0.368;2023-02-14T00:49:05;102676.09;;;3.93;82.46
49461;BME280;35355;49.198;-0.368;2023-02-14T00:51:31;102680.50;;;3.94;82.58
49461;BME280;35355;49.198;-0.368;2023-02-14T00:53:56;102670.00;;;3.91;82.49
49461;BME280;35355;49.198;-0.368;2023-02-14T00:56:21;102671.22;;;3.89;82.34
49461;BME280;35355;49.198;-0.368;2023-02-14T00:58:47;102672.22;;;3.88;82.42
49461;BME280;35355;49.198;-0.368;2023-02-14T01:01:13;102674.75;;;3.89;82.47
49461;BME280;35355;49.198;-0.368;2023-02-14T01:03:39;102671.38;;;3.87;82.38
49461;BME280;35355;49.198;-0.368;2023-02-14T01:06:05;102670.34;;;3.88;82.64
49461;BME280;35355;49.198;-0.368;2023-02-14T01:08:32;102673.03;;;3.88;82.69
49461;BME280;35355;49.198;-0.368;2023-02-14T01:10:57;102675.56;;;3.90;82.31
49461;BME280;35355;49.198;-0.368;2023-02-14T01:13:30;102664.28;;;3.86;82.18
49461;BME280;35355;49.198;-0.368;2023-02-14T01:15:55;102670.50;;;3.86;82.30
49461;BME280;35355;49.198;-0.368;2023-02-14T01:18:21;102666.16;;;3.85;82.53
49461;BME280;35355;49.198;-0.368;2023-02-14T01:20:46;102662.91;;;3.82;82.35
49461;BME280;35355;49.198;-0.368;2023-02-14T01:23:11;102665.13;;;3.78;82.29
49461;BME280;35355;49.198;-0.368;2023-02-14T01:25:37;102664.59;;;3.75;81.98
49461;BME280;35355;49.198;-0.368;2023-02-14T01:28:04;102661.59;;;3.69;82.56
49461;BME280;35355;49.198;-0.368;2023-02-14T01:30:30;102664.94;;;3.72;82.59
49461;BME280;35355;49.198;-0.368;2023-02-14T01:32:55;102662.41;;;3.70;82.17
49461;BME280;35355;49.198;-0.368;2023-02-14T01:35:21;102668.34;;;3.74;82.53
49461;BME280;35355;49.198;-0.368;2023-02-14T01:37:46;102661.91;;;3.75;82.29
49461;BME280;35355;49.198;-0.368;2023-02-14T01:40:12;102668.00;;;3.77;82.21
49461;BME280;35355;49.198;-0.368;2023-02-14T01:42:38;102673.72;;;3.82;82.35
49461;BME280;35355;49.198;-0.368;2023-02-14T01:47:32;102669.00;;;3.84;82.48
49461;BME280;35355;49.198;-0.368;2023-02-14T01:50:05;102675.91;;;3.86;82.66
49461;BME280;35355;49.198;-0.368;2023-02-14T01:52:40;102669.69;;;3.86;82.75
49461;BME280;35355;49.198;-0.368;2023-02-14T01:55:11;102665.44;;;3.83;82.37
49461;BME280;35355;49.198;-0.368;2023-02-14T01:58:19;102671.38;;;3.87;82.49
49461;BME280;35355;49.198;-0.368;2023-02-14T02:00:46;102669.69;;;3.86;82.36
49461;BME280;35355;49.198;-0.368;2023-02-14T02:03:26;102668.84;;;3.85;82.59
49461;BME280;35355;49.198;-0.368;2023-02-14T02:05:57;102663.44;;;3.85;82.54
49461;BME280;35355;49.198;-0.368;2023-02-14T02:08:24;102664.63;;;3.83;82.76
49461;BME280;35355;49.198;-0.368;2023-02-14T02:10:49;102663.63;;;3.84;82.33
49461;BME280;35355;49.198;-0.368;2023-02-14T02:13:17;102670.03;;;3.83;82.41
49461;BME280;35355;49.198;-0.368;2023-02-14T02:18:29;102665.31;;;3.77;82.44
49461;BME280;35355;49.198;-0.368;2023-02-14T02:24:06;102668.31;;;3.65;82.55
49461;BME280;35355;49.198;-0.368;2023-02-14T02:26:51;102665.13;;;3.62;82.28
49461;BME280;35355;49.198;-0.368;2023-02-14T02:55:43;102644.50;;;3.28;82.52
49461;BME280;35355;49.198;-0.368;2023-02-14T02:58:50;102643.81;;;3.26;82.28
49461;BME280;35355;49.198;-0.368;2023-02-14T03:01:20;102637.75;;;3.24;82.42
49461;BME280;35355;49.198;-0.368;2023-02-14T03:03:48;102639.28;;;3.26;82.25
49461;BME280;35355;49.198;-0.368;2023-02-14T03:06:35;102639.56;;;3.23;82.34
49461;BME280;35355;49.198;-0.368;2023-02-14T03:09:47;102636.88;;;3.23;82.33
49461;BME280;35355;49.198;-0.368;2023-02-14T03:15:20;102629.13;;;3.20;82.42
49461;BME280;35355;49.198;-0.368;2023-02-14T03:23:20;102631.66;;;3.13;82.30
49461;BME280;35355;49.198;-0.368;2023-02-14T03:28:54;102615.78;;;3.10;82.40
49461;BME280;35355;49.198;-0.368;2023-02-14T03:31:29;102617.28;;;3.13;82.38
49461;BME280;35355;49.198;-0.368;2023-02-14T03:34:09;102614.28;;;3.16;82.72
49461;BME280;35355;49.198;-0.368;2023-02-14T03:39:12;102617.16;;;3.14;82.80
49461;BME280;35355;49.198;-0.368;2023-02-14T03:41:49;102633.34;;;3.14;82.55
49461;BME280;35355;49.198;-0.368;2023-02-14T03:44:18;102635.34;;;3.12;82.83
49461;BME280;35355;49.198;-0.368;2023-02-14T03:46:51;102632.81;;;3.11;82.44
49461;BME280;35355;49.198;-0.368;2023-02-14T03:49:21;102631.13;;;3.02;82.24
49461;BME280;35355;49.198;-0.368;2023-02-14T03:51:49;102632.13;;;3.01;82.35
49461;BME280;35355;49.198;-0.368;2023-02-14T03:54:17;102623.34;;;2.98;82.59
49461;BME280;35355;49.198;-0.368;2023-02-14T03:57:14;102624.19;;;2.99;82.45
49461;BME280;35355;49.198;-0.368;2023-02-14T03:59:43;102618.78;;;2.99;82.81
49461;BME280;35355;49.198;-0.368;2023-02-14T04:02:24;102622.81;;;2.95;82.47
49461;BME280;35355;49.198;-0.368;2023-02-14T04:04:51;102624.03;;;2.92;82.58
49461;BME280;35355;49.198;-0.368;2023-02-14T04:07:21;102622.50;;;2.90;82.55
49461;BME280;35355;49.198;-0.368;2023-02-14T04:09:46;102615.91;;;2.84;82.44
49461;BME280;35355;49.198;-0.368;2023-02-14T04:12:14;102623.31;;;2.82;82.44
49461;BME280;35355;49.198;-0.368;2023-02-14T04:14:39;102618.22;;;2.79;82.58
49461;BME280;35355;49.198;-0.368;2023-02-14T04:17:05;102622.44;;;2.81;82.76
49461;BME280;35355;49.198;-0.368;2023-02-14T04:19:49;102613.84;;;2.78;82.81
49461;BME280;35355;49.198;-0.368;2023-02-14T04:22:15;102623.94;;;2.76;82.99
49461;BME280;35355;49.198;-0.368;2023-02-14T04:24:41;102617.06;;;2.73;82.37
49461;BME280;35355;49.198;-0.368;2023-02-14T04:27:06;102615.19;;;2.74;82.82
49461;BME280;35355;49.198;-0.368;2023-02-14T04:29:36;102611.81;;;2.72;82.88
49461;BME280;35355;49.198;-0.368;2023-02-14T04:32:02;102607.44;;;2.71;82.50
49461;BME280;35355;49.198;-0.368;2023-02-14T04:34:27;102603.19;;;2.68;82.75
49461;BME280;35355;49.198;-0.368;2023-02-14T04:36:52;102603.03;;;2.70;83.03
49461;BME280;35355;49.198;-0.368;2023-02-14T04:39:18;102604.03;;;2.69;82.86
49461;BME280;35355;49.198;-0.368;2023-02-14T04:41:44;102599.50;;;2.69;83.12
49461;BME280;35355;49.198;-0.368;2023-02-14T04:44:09;102602.69;;;2.73;82.70
49461;BME280;35355;49.198;-0.368;2023-02-14T04:46:34;102595.31;;;2.75;83.02
49461;BME280;35355;49.198;-0.368;2023-02-14T04:49:00;102593.63;;;2.74;83.09
49461;BME280;35355;49.198;-0.368;2023-02-14T04:51:25;102600.72;;;2.75;83.16
49461;BME280;35355;49.198;-0.368;2023-02-14T04:53:50;102600.38;;;2.78;82.99
49461;BME280;35355;49.198;-0.368;2023-02-14T04:56:16;102602.91;;;2.79;82.93
49461;BME280;35355;49.198;-0.368;2023-02-14T04:58:41;102588.56;;;2.79;82.56
49461;BME280;35355;49.198;-0.368;2023-02-14T05:01:06;102595.66;;;2.80;82.46
49461;BME280;35355;49.198;-0.368;2023-02-14T05:03:32;102585.84;;;2.79;83.00
49461;BME280;35355;49.198;-0.368;2023-02-14T05:05:57;102590.09;;;2.81;82.66
49461;BME280;35355;49.198;-0.368;2023-02-14T05:08:22;102580.47;;;2.79;83.06
49461;BME280;35355;49.198;-0.368;2023-02-14T05:10:48;102591.94;;;2.81;83.20
49461;BME280;35355;49.198;-0.368;2023-02-14T05:13:13;102582.88;;;2.82;82.72
49461;BME280;35355;49.198;-0.368;2023-02-14T05:15:38;102581.16;;;2.81;83.28
49461;BME280;35355;49.198;-0.368;2023-02-14T05:18:04;102589.91;;;2.83;83.14
49461;BME280;35355;49.198;-0.368;2023-02-14T05:20:30;102585.56;;;2.82;82.94
49461;BME280;35355;49.198;-0.368;2023-02-14T05:22:55;102578.31;;;2.83;83.25
49461;BME280;35355;49.198;-0.368;2023-02-14T05:25:24;102577.47;;;2.82;82.75
49461;BME280;35355;49.198;-0.368;2023-02-14T05:27:49;102576.78;;;2.80;82.68
49461;BME280;35355;49.198;-0.368;2023-02-14T05:30:15;102580.63;;;2.77;82.46
49461;BME280;35355;49.198;-0.368;2023-02-14T05:52:32;102581.78;;;1.45;82.71
49461;BME280;35355;49.198;-0.368;2023-02-14T05:54:57;102583.75;;;1.43;83.46
49461;BME280;35355;49.198;-0.368;2023-02-14T05:57:22;102585.84;;;1.49;82.97
49461;BME280;35355;49.198;-0.368;2023-02-14T05:59:48;102587.06;;;1.55;83.46
49461;BME280;35355;49.198;-0.368;2023-02-14T06:02:13;102589.97;;;1.62;82.94
49461;BME280;35355;49.198;-0.368;2023-02-14T06:04:40;102591.06;;;1.69;83.09
49461;BME280;35355;49.198;-0.368;2023-02-14T06:07:05;102595.28;;;1.71;82.76
49461;BME280;35355;49.198;-0.368;2023-02-14T06:09:30;102595.97;;;1.73;83.21
49461;BME280;35355;49.198;-0.368;2023-02-14T06:11:56;102594.09;;;1.74;83.06
49461;BME280;35355;49.198;-0.368;2023-02-14T06:14:23;102593.09;;;1.75;83.31
49461;BME280;35355;49.198;-0.368;2023-02-14T06:16:48;102584.88;;;1.77;82.90
49461;BME280;35355;49.198;-0.368;2023-02-14T06:19:13;102591.63;;;1.81;83.58
49461;BME280;35355;49.198;-0.368;2023-02-14T06:21:39;102590.66;;;1.82;83.15
49461;BME280;35355;49.198;-0.368;2023-02-14T06:24:04;102586.59;;;1.86;83.06
49461;BME280;35355;49.198;-0.368;2023-02-14T06:26:29;102598.91;;;1.88;83.40
49461;BME280;35355;49.198;-0.368;2023-02-14T06:28:56;102592.38;;;1.91;83.08
49461;BME280;35355;49.198;-0.368;2023-02-14T06:31:23;102596.63;;;1.93;83.76
49461;BME280;35355;49.198;-0.368;2023-02-14T06:33:48;102590.91;;;1.97;83.51
49461;BME280;35355;49.198;-0.368;2023-02-14T06:36:14;102601.34;;;2.00;83.70
49461;BME280;35355;49.198;-0.368;2023-02-14T06:38:40;102608.41;;;2.01;83.49
49461;BME280;35355;49.198;-0.368;2023-02-14T06:41:07;102609.78;;;2.05;83.42
49461;BME280;35355;49.198;-0.368;2023-02-14T06:43:33;102610.50;;;2.07;83.08
49461;BME280;35355;49.198;-0.368;2023-02-14T06:45:59;102603.09;;;2.09;83.47
49461;BME280;35355;49.198;-0.368;2023-02-14T06:48:25;102611.84;;;2.11;83.18
49461;BME280;35355;49.198;-0.368;2023-02-14T06:50:50;102604.63;;;2.12;83.46
49461;BME280;35355;49.198;-0.368;2023-02-14T06:53:17;102608.88;;;2.14;83.00
49461;BME280;35355;49.198;-0.368;2023-02-14T06:55:42;102607.16;;;2.13;83.58
49461;BME280;35355;49.198;-0.368;2023-02-14T06:58:08;102610.53;;;2.15;83.38
49461;BME280;35355;49.198;-0.368;2023-02-14T07:00:33;102606.84;;;2.16;83.33
49461;BME280;35355;49.198;-0.368;2023-02-14T07:02:58;102610.22;;;2.18;83.59
49461;BME280;35355;49.198;-0.368;2023-02-14T07:05:24;102611.91;;;2.19;83.15
49461;BME280;35355;49.198;-0.368;2023-02-14T07:07:49;102619.00;;;2.20;83.29
49461;BME280;35355;49.198;-0.368;2023-02-14T07:10:15;102612.56;;;2.21;83.09
49461;BME280;35355;49.198;-0.368;2023-02-14T07:12:40;102613.59;;;2.20;83.37
49461;BME280;35355;49.198;-0.368;2023-02-14T07:15:10;102618.84;;;2.22;83.12
49461;BME280;35355;49.198;-0.368;2023-02-14T07:17:37;102625.22;;;2.21;83.49
49461;BME280;35355;49.198;-0.368;2023-02-14T07:20:03;102619.00;;;2.20;83.20
49461;BME280;35355;49.198;-0.368;2023-02-14T07:22:30;102620.00;;;2.19;83.47
49461;BME280;35355;49.198;-0.368;2023-02-14T07:24:55;102613.94;;;2.17;82.73
49461;BME280;35355;49.198;-0.368;2023-02-14T07:27:21;102611.69;;;2.13;82.97
49461;BME280;35355;49.198;-0.368;2023-02-14T07:29:46;102610.84;;;2.12;82.32
49461;BME280;35355;49.198;-0.368;2023-02-14T07:32:11;102625.03;;;2.14;82.57
49461;BME280;35355;49.198;-0.368;2023-02-14T07:34:37;102624.31;;;2.12;82.99
49461;BME280;35355;49.198;-0.368;2023-02-14T07:37:02;102627.50;;;2.07;82.41
49461;BME280;35355;49.198;-0.368;2023-02-14T07:39:27;102626.28;;;2.02;82.21
49461;BME280;35355;49.198;-0.368;2023-02-14T07:41:53;102627.59;;;1.98;82.76
49461;BME280;35355;49.198;-0.368;2023-02-14T07:44:18;102629.28;;;1.99;82.49
49461;BME280;35355;49.198;-0.368;2023-02-14T07:46:44;102633.69;;;2.00;82.57
49461;BME280;35355;49.198;-0.368;2023-02-14T07:49:09;102635.34;;;2.01;82.76
49461;BME280;35355;49.198;-0.368;2023-02-14T07:51:35;102633.03;;;2.06;82.95
49461;BME280;35355;49.198;-0.368;2023-02-14T07:54:00;102631.66;;;2.02;83.08
49461;BME280;35355;49.198;-0.368;2023-02-14T07:56:26;102632.22;;;2.05;82.69
49461;BME280;35355;49.198;-0.368;2023-02-14T07:58:51;102626.34;;;2.10;83.08
49461;BME280;35355;49.198;-0.368;2023-02-14T08:01:16;102623.66;;;2.10;82.94
49461;BME280;35355;49.198;-0.368;2023-02-14T08:03:42;102628.06;;;2.19;82.73
49461;BME280;35355;49.198;-0.368;2023-02-14T08:06:14;102631.16;;;2.24;82.92
49461;BME280;35355;49.198;-0.368;2023-02-14T08:08:39;102629.78;;;2.28;82.93
49461;BME280;35355;49.198;-0.368;2023-02-14T08:11:04;102629.31;;;2.33;83.17
49461;BME280;35355;49.198;-0.368;2023-02-14T08:13:30;102626.31;;;2.36;82.87
49461;BME280;35355;49.198;-0.368;2023-02-14T08:15:55;102631.41;;;2.48;83.39
49461;BME280;35355;49.198;-0.368;2023-02-14T08:18:40;102630.59;;;2.55;83.23
49461;BME280;35355;49.198;-0.368;2023-02-14T08:21:08;102616.50;;;2.61;82.96
49461;BME280;35355;49.198;-0.368;2023-02-14T08:23:34;102620.91;;;2.71;83.04
49461;BME280;35355;49.198;-0.368;2023-02-14T08:26:00;102631.03;;;2.77;83.22
49461;BME280;35355;49.198;-0.368;2023-02-14T08:28:26;102632.06;;;2.84;83.03
49461;BME280;35355;49.198;-0.368;2023-02-14T08:30:52;102635.13;;;2.89;82.84
49461;BME280;35355;49.198;-0.368;2023-02-14T08:33:19;102638.19;;;2.94;83.19
49461;BME280;35355;49.198;-0.368;2023-02-14T08:35:44;102637.50;;;3.01;83.06
49461;BME280;35355;49.198;-0.368;2023-02-14T08:38:10;102642.56;;;3.04;83.05
49461;BME280;35355;49.198;-0.368;2023-02-14T08:40:35;102626.75;;;3.09;82.70
49461;BME280;35355;49.198;-0.368;2023-02-14T08:43:05;102620.84;;;3.13;82.94
49461;BME280;35355;49.198;-0.368;2023-02-14T08:45:30;102618.16;;;3.22;83.05
49461;BME280;35355;49.198;-0.368;2023-02-14T08:48:04;102618.34;;;3.28;82.94
49461;BME280;35355;49.198;-0.368;2023-02-14T08:50:29;102615.97;;;3.33;83.01
49461;BME280;35355;49.198;-0.368;2023-02-14T08:52:55;102621.56;;;3.40;83.21
49461;BME280;35355;49.198;-0.368;2023-02-14T08:55:20;102627.13;;;3.47;82.97
49461;BME280;35355;49.198;-0.368;2023-02-14T08:57:45;102632.38;;;3.57;82.68
49461;BME280;35355;49.198;-0.368;2023-02-14T09:00:13;102624.28;;;3.65;82.83
49461;BME280;35355;49.198;-0.368;2023-02-14T09:02:39;102624.44;;;3.72;83.11
49461;BME280;35355;49.198;-0.368;2023-02-14T09:05:05;102628.66;;;3.82;82.80
49461;BME280;35355;49.198;-0.368;2023-02-14T09:07:32;102626.78;;;3.91;82.45
49461;BME280;35355;49.198;-0.368;2023-02-14T09:09:57;102627.44;;;4.01;82.12
49461;BME280;35355;49.198;-0.368;2023-02-14T09:12:23;102629.13;;;4.11;82.59
49461;BME280;35355;49.198;-0.368;2023-02-14T09:14:48;102631.78;;;4.19;83.01
49461;BME280;35355;49.198;-0.368;2023-02-14T09:17:14;102629.09;;;4.27;82.27
49461;BME280;35355;49.198;-0.368;2023-02-14T09:19:40;102627.22;;;4.36;82.25
49461;BME280;35355;49.198;-0.368;2023-02-14T09:22:07;102619.91;;;4.45;82.20
49461;BME280;35355;49.198;-0.368;2023-02-14T09:24:35;102618.19;;;4.52;82.31
49461;BME280;35355;49.198;-0.368;2023-02-14T09:27:01;102605.81;;;4.57;82.29
49461;BME280;35355;49.198;-0.368;2023-02-14T09:29:27;102611.03;;;4.67;81.66
49461;BME280;35355;49.198;-0.368;2023-02-14T09:31:56;102605.59;;;4.76;81.75
49461;BME280;35355;49.198;-0.368;2023-02-14T09:34:22;102602.81;;;4.84;81.93
49461;BME280;35355;49.198;-0.368;2023-02-14T09:36:48;102600.25;;;4.90;81.76
49461;BME280;35355;49.198;-0.368;2023-02-14T09:39:31;102599.72;;;4.95;82.49
49461;BME280;35355;49.198;-0.368;2023-02-14T09:44:55;102597.91;;;5.10;81.60
49461;BME280;35355;49.198;-0.368;2023-02-14T09:49:57;102590.72;;;5.26;81.17
49461;BME280;35355;49.198;-0.368;2023-02-14T09:52:26;102585.22;;;5.34;81.19
49461;BME280;35355;49.198;-0.368;2023-02-14T09:54:56;102578.25;;;5.40;81.05
49461;BME280;35355;49.198;-0.368;2023-02-14T10:05:53;102586.94;;;5.73;80.73
49461;BME280;35355;49.198;-0.368;2023-02-14T10:08:37;102581.59;;;5.80;80.75
49461;BME280;35355;49.198;-0.368;2023-02-14T10:11:08;102575.84;;;5.83;81.72
49461;BME280;35355;49.198;-0.368;2023-02-14T10:13:45;102579.47;;;5.90;80.59
49461;BME280;35355;49.198;-0.368;2023-02-14T10:16:16;102578.59;;;5.98;80.75
49461;BME280;35355;49.198;-0.368;2023-02-14T10:18:48;102571.38;;;6.05;79.83
49461;BME280;35355;49.198;-0.368;2023-02-14T10:21:23;102565.44;;;6.10;80.04
49461;BME280;35355;49.198;-0.368;2023-02-14T10:24:24;102567.84;;;6.20;80.47
49461;BME280;35355;49.198;-0.368;2023-02-14T10:26:54;102577.09;;;6.25;79.90
49461;BME280;35355;49.198;-0.368;2023-02-14T10:29:22;102570.28;;;6.29;79.81
49461;BME280;35355;49.198;-0.368;2023-02-14T10:31:56;102575.59;;;6.38;80.06
49461;BME280;35355;49.198;-0.368;2023-02-14T10:46:10;102568.25;;;6.68;79.37
49461;BME280;35355;49.198;-0.368;2023-02-14T10:48:58;102567.97;;;6.78;79.16
49461;BME280;35355;49.198;-0.368;2023-02-14T10:51:42;102558.84;;;6.85;78.52
49461;BME280;35355;49.198;-0.368;2023-02-14T10:56:54;102558.16;;;6.98;78.90
49461;BME280;35355;49.198;-0.368;2023-02-14T10:59:24;102559.91;;;7.06;78.57
49461;BME280;35355;49.198;-0.368;2023-02-14T11:01:52;102555.59;;;7.12;78.42
49461;BME280;35355;49.198;-0.368;2023-02-14T11:04:21;102552.91;;;7.18;78.31
49461;BME280;35355;49.198;-0.368;2023-02-14T11:06:48;102549.88;;;7.28;77.95
49461;BME280;35355;49.198;-0.368;2023-02-14T11:09:15;102543.47;;;7.36;77.80
49461;BME280;35355;49.198;-0.368;2023-02-14T11:11:49;102546.06;;;7.44;78.24
49461;BME280;35355;49.198;-0.368;2023-02-14T11:16:45;102535.28;;;7.58;77.71
49461;BME280;35355;49.198;-0.368;2023-02-14T11:19:22;102541.63;;;7.65;77.21
49461;BME280;35355;49.198;-0.368;2023-02-14T11:21:49;102531.63;;;7.72;77.26
49461;BME280;35355;49.198;-0.368;2023-02-14T11:24:33;102524.56;;;7.78;77.58
49461;BME280;35355;49.198;-0.368;2023-02-14T11:27:03;102529.19;;;7.84;77.25
49461;BME280;35355;49.198;-0.368;2023-02-14T11:29:48;102519.41;;;7.89;76.99
49461;BME280;35355;49.198;-0.368;2023-02-14T11:32:25;102518.41;;;7.97;77.75
49461;BME280;35355;49.198;-0.368;2023-02-14T11:34:58;102517.59;;;8.03;76.91
49461;BME280;35355;49.198;-0.368;2023-02-14T11:37:27;102506.13;;;8.08;76.79
49461;BME280;35355;49.198;-0.368;2023-02-14T11:39:55;102497.78;;;8.16;76.37
49461;BME280;35355;49.198;-0.368;2023-02-14T11:42:38;102500.13;;;8.26;77.04
49461;BME280;35355;49.198;-0.368;2023-02-14T11:45:05;102496.81;;;8.31;76.56
49461;BME280;35355;49.198;-0.368;2023-02-14T11:47:33;102494.75;;;8.39;76.09
49461;BME280;35355;49.198;-0.368;2023-02-14T11:50:22;102480.13;;;8.47;77.02
49461;BME280;35355;49.198;-0.368;2023-02-14T11:52:58;102489.38;;;8.53;76.76
49461;BME280;35355;49.198;-0.368;2023-02-14T11:55:33;102485.00;;;8.58;76.45
49461;BME280;35355;49.198;-0.368;2023-02-14T11:58:00;102486.88;;;8.65;75.44
49461;BME280;35355;49.198;-0.368;2023-02-14T12:00:27;102472.25;;;8.72;75.22
49461;BME280;35355;49.198;-0.368;2023-02-14T12:02:56;102473.72;;;8.75;74.95
49461;BME280;35355;49.198;-0.368;2023-02-14T12:07:56;102464.94;;;8.86;74.56
49461;BME280;35355;49.198;-0.368;2023-02-14T12:10:31;102462.22;;;8.93;74.30
49461;BME280;35355;49.198;-0.368;2023-02-14T12:13:03;102456.38;;;9.03;74.73
49461;BME280;35355;49.198;-0.368;2023-02-14T12:18:37;102458.03;;;9.24;74.60
49461;BME280;35355;49.198;-0.368;2023-02-14T12:27:30;102428.91;;;9.38;74.50
49461;BME280;35355;49.198;-0.368;2023-02-14T12:30:03;102425.75;;;9.41;73.01
49461;BME280;35355;49.198;-0.368;2023-02-14T12:32:32;102421.56;;;9.45;72.09
49461;BME280;35355;49.198;-0.368;2023-02-14T12:46:14;102414.56;;;9.62;70.81
49461;BME280;35355;49.198;-0.368;2023-02-14T12:51:43;102406.38;;;9.69;69.33
49461;BME280;35355;49.198;-0.368;2023-02-14T12:54:54;102397.13;;;9.77;71.97
49461;BME280;35355;49.198;-0.368;2023-02-14T13:08:05;102386.56;;;9.94;67.30
49461;BME280;35355;49.198;-0.368;2023-02-14T13:16:21;102381.50;;;10.04;67.91
49461;BME280;35355;49.198;-0.368;2023-02-14T13:21:23;102373.09;;;10.06;66.60
49461;BME280;35355;49.198;-0.368;2023-02-14T13:23:53;102374.72;;;10.07;65.89
49461;BME280;35355;49.198;-0.368;2023-02-14T13:26:24;102368.00;;;10.09;65.98
49461;BME280;35355;49.198;-0.368;2023-02-14T13:29:02;102361.28;;;10.12;66.61
49461;BME280;35355;49.198;-0.368;2023-02-14T13:31:29;102352.88;;;10.13;64.98
49461;BME280;35355;49.198;-0.368;2023-02-14T13:33:59;102350.75;;;10.15;65.02
49461;BME280;35355;49.198;-0.368;2023-02-14T13:36:27;102347.59;;;10.18;64.25
49461;BME280;35355;49.198;-0.368;2023-02-14T13:38:54;102339.81;;;10.22;63.97
49461;BME280;35355;49.198;-0.368;2023-02-14T13:41:21;102350.72;;;10.22;63.38
49461;BME280;35355;49.198;-0.368;2023-02-14T13:43:58;102344.00;;;10.25;62.96
49461;BME280;35355;49.198;-0.368;2023-02-14T13:49:45;102333.91;;;10.25;62.70
49461;BME280;35355;49.198;-0.368;2023-02-14T13:51:46;102331.78;;;10.27;62.42
49461;BME280;35355;49.198;-0.368;2023-02-14T13:54:45;102330.53;;;10.30;65.08
49461;BME280;35355;49.198;-0.368;2023-02-14T13:57:32;102327.34;;;10.33;64.61
49461;BME280;35355;49.198;-0.368;2023-02-14T14:22:03;102288.75;;;9.65;67.62
49461;BME280;35355;49.198;-0.368;2023-02-14T14:24:30;102285.59;;;9.69;64.51
49461;BME280;35355;49.198;-0.368;2023-02-14T14:29:23;102289.66;;;9.91;63.95
49461;BME280;35355;49.198;-0.368;2023-02-14T14:31:51;102287.50;;;10.00;63.72
49461;BME280;35355;49.198;-0.368;2023-02-14T14:34:22;102278.03;;;10.03;62.80
49461;BME280;35355;49.198;-0.368;2023-02-14T14:36:50;102284.28;;;10.10;62.72
49461;BME280;35355;49.198;-0.368;2023-02-14T14:39:29;102280.69;;;10.16;63.16
49461;BME280;35355;49.198;-0.368;2023-02-14T14:42:04;102274.31;;;10.22;63.96
49461;BME280;35355;49.198;-0.368;2023-02-14T14:44:32;102274.47;;;10.27;62.27
49461;BME280;35355;49.198;-0.368;2023-02-14T14:46:58;102278.03;;;10.34;61.54
49461;BME280;35355;49.198;-0.368;2023-02-14T14:49:24;102278.22;;;10.40;61.44
49461;BME280;35355;49.198;-0.368;2023-02-14T14:51:50;102273.34;;;10.42;61.40
49461;BME280;35355;49.198;-0.368;2023-02-14T14:54:19;102265.13;;;10.48;61.65
49461;BME280;35355;49.198;-0.368;2023-02-14T14:56:59;102268.22;;;10.52;62.88
49461;BME280;35355;49.198;-0.368;2023-02-14T14:59:33;102255.22;;;10.54;60.74
49461;BME280;35355;49.198;-0.368;2023-02-14T15:02:00;102258.91;;;10.60;60.36
49461;BME280;35355;49.198;-0.368;2023-02-14T15:04:31;102249.22;;;10.64;60.84
49461;BME280;35355;49.198;-0.368;2023-02-14T15:07:16;102249.84;;;10.66;61.84
49461;BME280;35355;49.198;-0.368;2023-02-14T15:09:42;102249.22;;;10.64;59.47
49461;BME280;35355;49.198;-0.368;2023-02-14T15:12:09;102253.84;;;10.63;58.90
49461;BME280;35355;49.198;-0.368;2023-02-14T15:14:55;102242.06;;;10.63;59.00
49461;BME280;35355;49.198;-0.368;2023-02-14T15:17:24;102244.56;;;10.64;58.82
49461;BME280;35355;49.198;-0.368;2023-02-14T15:20:03;102231.78;;;10.65;60.29
49461;BME280;35355;49.198;-0.368;2023-02-14T15:22:37;102236.19;;;10.66;58.86
49461;BME280;35355;49.198;-0.368;2023-02-14T15:25:09;102230.94;;;10.64;63.90
49461;BME280;35355;49.198;-0.368;2023-02-14T15:27:38;102226.31;;;10.65;59.44
49461;BME280;35355;49.198;-0.368;2023-02-14T15:30:28;102229.41;;;10.68;58.81
49461;BME280;35355;49.198;-0.368;2023-02-14T15:32:55;102229.66;;;10.67;58.64
49461;BME280;35355;49.198;-0.368;2023-02-14T15:35:26;102216.75;;;10.74;59.52
49461;BME280;35355;49.198;-0.368;2023-02-14T15:37:54;102219.22;;;10.82;58.50
49461;BME280;35355;49.198;-0.368;2023-02-14T15:40:26;102215.34;;;10.90;59.13
49461;BME280;35355;49.198;-0.368;2023-02-14T15:42:53;102214.88;;;10.93;57.62
49461;BME280;35355;49.198;-0.368;2023-02-14T15:47:51;102211.38;;;10.86;58.02
49461;BME280;35355;49.198;-0.368;2023-02-14T15:50:22;102204.69;;;10.82;57.28
49461;BME280;35355;49.198;-0.368;2023-02-14T15:52:52;102200.31;;;10.81;57.81